Terminal Aerodrome Forecast
Issued by NWS Billings, MT

Home | Current Version | Previous Version | Text Only | Print | Product List | Glossary On
Versions: 1 2 3 4 5 6 7 8 9 10 11 12 13 14 15 16 17 18 19
000
FTUS45 KBYZ 280039 AAA
TAFBIL
TAF AMD
KBIL 280039Z 2801/2824 06006KT P6SM SCT010 BKN025
     FM280200 VRB04KT P6SM VCSH SCT020 BKN060
     FM282200 07008KT P6SM SCT020 BKN060=

USA.gov is the U.S. government's official web portal to all federal, state and local government web resources and services.